This is the latest recevied weather packets stored in our database for station/object LU5DTF-1. If no packets are shown the sender has not sent any weather packets the latest 10 day(s).
| Time | Temp. | Humidity | Pressure | Rain* | Wind** | Luminosity | Snow |
|---|---|---|---|---|---|---|---|
| 1777692597 | 13.89° C | 59% | 1015.6 hPa | 0 mm | - | - | - |
| 1777692297 | 13.89° C | 58% | 1015.5 hPa | 0 mm | - | - | - |
| 1777691997 | 13.89° C | 56% | 1015.5 hPa | 0 mm | - | - | - |
| 1777691697 | 13.89° C | 52% | 1015.5 hPa | 0 mm | - | - | - |
| 1777691397 | 14.44° C | 54% | 1015.4 hPa | 0 mm | - | - | - |
| 1777690497 | 14.44° C | 58% | 1014.9 hPa | 0 mm | - | - | - |
| 1777690197 | 14.44° C | 57% | 1014.9 hPa | 0 mm | - | - | - |
| 1777689897 | 14.44° C | 59% | 1014.8 hPa | 0 mm | - | - | - |
| 1777689597 | 14.44° C | 59% | 1014.9 hPa | 0 mm | - | - | - |
| 1777689297 | 14.44° C | 56% | 1014.5 hPa | 0 mm | - | - | - |
| 1777688998 | 14.44° C | 56% | 1014.6 hPa | 0 mm | - | - | - |
| 1777688698 | 14.44° C | 56% | 1014.8 hPa | 0 mm | - | - | - |
| 1777673697 | 16.11° C | 70% | 1011.5 hPa | 0 mm | - | - | - |
| 1777664097 | 18.89° C | 61% | 1009.2 hPa | 0 mm | - | - | - |
| 1777662897 | 18.89° C | 66% | 1008.9 hPa | 0 mm | - | - | - |
| 1777659297 | 20° C | 66% | 1008.4 hPa | 0 mm | - | - | - |
| 1777658997 | 21.67° C | 62% | 1008.4 hPa | 0 mm | - | - | - |
| 1777655397 | 21.67° C | 61% | 1007.8 hPa | 0 mm | - | - | - |
| 1777653297 | 20.56° C | 63% | 1008.3 hPa | 0 mm | - | - | - |
| 1777652697 | 20.56° C | 63% | 1008.5 hPa | 0 mm | - | - | - |
| 1777649997 | 21.11° C | 61% | 1008.7 hPa | 0 mm | - | - | - |
| 1777649697 | 20.56° C | 61% | 1008.8 hPa | 0 mm | - | - | - |
| 1777649397 | 20.56° C | 61% | 1008.7 hPa | 0 mm | - | - | - |
| 1777649097 | 20.56° C | 61% | 1008.9 hPa | 0 mm | - | - | - |
| 1777648797 | 20.56° C | 62% | 1008.9 hPa | 0 mm | - | - | - |
* Rain latest hour (hover to see other rain measurements)
** Current wind speed in m/s (hover to see current wind gust speed)